Sunday, January 21, 2018, 2:44 PM CST
Back to Local

KMCK, Mc Cook Municipal Airport

Location: Mc Cook, NE, United States Lat: 40.2
Local Time: 2:44 PM CST (20:44 GMT) Lon: -100.583
Time Zone: US/Central Elev: 2578 ft

Show me the last for .
Show Decoded

2018-01-21 14:29 METAR KMCK 212029Z AUTO 03017KT 1SM -SN BR OVC007 00/00 A2966 RMK AO2 PK WND
                 03026/2011 CIG 004V010 P0003 T00000000 =
2018-01-21 14:21 METAR KMCK 212021Z AUTO 03016KT 3/4SM -SN BR BKN007 OVC010 00/00 A2966 RMK AO2
                 PK WND 03026/2011 P0002 T00000000 =
2018-01-21 14:14 METAR KMCK 212014Z AUTO 03017KT 1SM -SN BR BKN007 OVC012 00/M01 A2966 RMK AO2 PK
                 WND 03026/2011 CIG 004V010 P0002 T00001006 =
2018-01-21 14:06 METAR KMCK 212006Z AUTO 02020G26KT 3/4SM -SN BR OVC007 00/M01 A2967 RMK AO2 PK
                 WND 03026/2005 CIG 004V011 P0001 T00001006 =
2018-01-21 13:53 METAR KMCK 211953Z AUTO 02018G23KT 1SM -SN BR OVC006 00/00 A2968 RMK AO2 SNB11
                 CIG 004V010 SLP071 P0002 T00000000 =
2018-01-21 13:33 METAR KMCK 211933Z AUTO 02012KT 3/4SM -SN BR OVC006 01/00 A2969 RMK AO2 SNB11
                 P0001 T00060000 =
2018-01-21 13:14 METAR KMCK 211914Z AUTO 02014G22KT 1 3/4SM -SN BR OVC006 01/00 A2969 RMK AO2
                 SNB11 P0000 T00060000 =
2018-01-21 12:53 METAR KMCK 211853Z AUTO 03017G26KT 9SM OVC006 01/00 A2968 RMK AO2 PK WND
                 03028/1821 SLP071 T00060000 =
2018-01-21 11:53 METAR KMCK 211753Z AUTO 02020G28KT 7SM OVC007 01/00 A2971 RMK AO2 PK WND
                 03030/1733 SLP082 60002 T00060000 10006 20000 58018 =
2018-01-21 10:53 METAR KMCK 211653Z AUTO 02018KT 6SM BR OVC008 01/00 A2975 RMK AO2 PK WND
                 01031/1606 SLP094 T00060000 =
2018-01-21 09:53 METAR KMCK 211553Z AUTO 02021G30KT 5SM BR BKN008 OVC012 01/00 A2975 RMK AO2 PK
                 WND 02030/1550 UPE02 CIG 005V010 SLP093 P0000 T00060000 =
2018-01-21 09:41 METAR KMCK 211541Z AUTO 02018KT 3SM BR OVC007 01/00 A2976 RMK AO2 PK WND
                 01026/1541 UPE02 CIG 005V010 P0000 T00060000 =
2018-01-21 09:18 METAR KMCK 211518Z AUTO 02016KT 2SM BR OVC005 01/00 A2977 RMK AO2 UPE02 P0000
                 T00060000 =
2018-01-21 08:53 METAR KMCK 211453Z AUTO 01014KT 1 1/2SM UP BR OVC006 00/00 A2977 RMK AO2 CIG
                 003V009 SLP101 P0002 60002 T00000000 50003 =
2018-01-21 08:01 METAR KMCK 211401Z AUTO 01006KT 2SM UP BR OVC009 00/M01 A2980 RMK AO2 CIG
                 006V011 P0000 T00001006 =
2018-01-21 07:53 METAR KMCK 211353Z AUTO 36009KT 3SM UP BR OVC009 00/M01 A2980 RMK AO2 UPB42
                 SLP109 P0000 T00001006 =
2018-01-21 06:53 METAR KMCK 211253Z AUTO 02014KT 7SM OVC011 00/M01 A2976 RMK AO2 SLP094 T00001011
                 =
2018-01-21 05:53 METAR KMCK 211153Z AUTO 02015KT 8SM OVC014 00/M02 A2976 RMK AO2 SLP096 T00001017
                 10000 21017 58008 =
2018-01-21 05:01 METAR KMCK 211101Z AUTO 02014KT 10SM OVC014 00/M02 A2977 RMK AO2 T00001022 =
2018-01-21 04:53 METAR KMCK 211053Z AUTO 01013KT 10SM OVC016 00/M02 A2978 RMK AO2 SLP095
                 T00001022 =
2018-01-21 03:53 METAR KMCK 210953Z AUTO 36010KT 10SM OVC018 M01/M02 A2980 RMK AO2 SLP099
                 T10061022 =
2018-01-21 02:53 METAR KMCK 210853Z AUTO 01012KT 10SM BKN015 OVC027 M01/M02 A2979 RMK AO2 SLP097
                 T10061022 55002 =
2018-01-21 02:31 METAR KMCK 210831Z AUTO 01012KT 10SM SCT012 BKN027 M01/M03 A2979 RMK AO2
                 T10111028 =
2018-01-21 01:53 METAR KMCK 210753Z AUTO 01012KT 10SM CLR M01/M03 A2978 RMK AO2 SLP096 T10111028
                 =
2018-01-21 00:53 METAR KMCK 210653Z AUTO 01011KT 10SM CLR M01/M03 A2979 RMK AO2 SLP099 T10111028
                 =
2018-01-20 23:53 METAR KMCK 210553Z AUTO 02010KT 10SM CLR M01/M02 A2979 RMK AO2 SLP103 T10061022
                 10028 21006 401061050 58003 =
2018-01-20 22:53 METAR KMCK 210453Z AUTO 02012KT 10SM CLR 00/M02 A2980 RMK AO2 SLP104 T00001022 =
2018-01-20 21:53 METAR KMCK 210353Z AUTO 02011KT 10SM CLR 01/M02 A2981 RMK AO2 SLP112 T00061017 =
2018-01-20 20:53 METAR KMCK 210253Z AUTO 03013KT 10SM CLR 01/M02 A2980 RMK AO2 SLP111 T00111017
                 50006 =
2018-01-20 19:53 METAR KMCK 210153Z AUTO 02012KT 10SM CLR 02/M01 A2981 RMK AO2 SLP116 T00171011 =
2018-01-20 18:53 METAR KMCK 210053Z AUTO 03008KT 10SM CLR 02/M02 A2981 RMK AO2 SLP117 T00221017 =
2018-01-20 17:53 METAR KMCK 202353Z AUTO 04007KT 10SM CLR 03/M02 A2978 RMK AO2 SLP108 T00281022
                 10106 20028 53014 =
2018-01-20 16:53 METAR KMCK 202253Z AUTO 05008KT 10SM CLR 08/M01 A2976 RMK AO2 SLP093 T00781006 =
2018-01-20 15:53 METAR KMCK 202153Z AUTO 05012KT 10SM CLR 10/00 A2974 RMK AO2 SLP080 T01000000 =
2018-01-20 14:53 METAR KMCK 202053Z AUTO 05011KT 10SM CLR 10/00 A2974 RMK AO2 SLP081 T01000000
                 55016 =

Support USWX by starting your Amazon purchase here.